Time;durP1;ratioP1;P1;durP2;ratioP2;P2;SDS_P1;SDS_P2;PMS_P1;PMS_P2;Temp;Humidity;BMP_temperature;BMP_pressure;BME280_temperature;BME280_humidity;BME280_pressure;Samples;Min_cycle;Max_cycle;Signal;HPM_P1;HPM_P2
2023/12/03 00:00:30;;;;;;;;;;;;;;;;;;5056151;28;19931;-82
2023/12/03 00:02:57;;;;;;;;;;;;;;;;;;5054483;28;19924;-82
2023/12/03 00:05:23;;;;;;;;;;;;;;;;;;5054731;28;19932;-82
2023/12/03 00:07:50;;;;;;;;;;;;;;;;;;5054753;28;19971;-82
2023/12/03 00:10:17;;;;;;;;;;;;;;;;;;5055782;28;19974;-82
2023/12/03 00:12:44;;;;;;;;;;;;;;;;;;5055971;28;19931;-82
2023/12/03 00:15:10;;;;;;;;;;;;;;;;;;5054042;28;19925;-82
2023/12/03 00:17:36;;;;;;;;;;;;;;;;;;5056080;28;20019;-81
2023/12/03 00:20:03;;;;;;;;;;;;;;;;;;5054525;28;20260;-81
2023/12/03 00:22:29;;;;;;;;;;;;;;;;;;5054571;28;20006;-81
2023/12/03 00:24:55;;;;;;;;;;;;;;;;;;5054873;28;19929;-83
2023/12/03 00:27:22;;;;;;;;;;;;;;;;;;5055432;28;20463;-83
2023/12/03 00:29:49;;;;;;;;;;;;;;;;;;5055091;28;19925;-83
2023/12/03 00:32:15;;;;;;;;;;;;;;;;;;5055342;28;19929;-83
2023/12/03 00:34:41;;;;;;;;;;;;;;;;;;5054649;28;20031;-83
2023/12/03 00:37:07;;;;;;;;;;;;;;;;;;5055743;28;20016;-82
2023/12/03 00:39:34;;;;;;;;;;;;;;;;;;5053402;28;19925;-83
2023/12/03 00:42:00;;;;;;;;;;;;;;;;;;5055213;28;19931;-84
2023/12/03 00:44:26;;;;;;;;;;;;;;;;;;5053098;28;19925;-82
2023/12/03 00:46:53;;;;;;;;;;;;;;;;;;5055045;28;20298;-81
2023/12/03 00:49:19;;;;;;;;;;;;;;;;;;5054655;28;19935;-82
2023/12/03 00:51:45;;;;;;;;;;;;;;;;;;5055013;28;20015;-82
2023/12/03 00:54:11;;;;;;;;;;;;;;;;;;5051905;28;19948;-82
2023/12/03 00:56:38;;;;;;;;;;;;;;;;;;5053254;28;19925;-82
2023/12/03 00:59:04;;;;;;;;;;;;;;;;;;5054469;28;20005;-82
2023/12/03 01:01:32;;;;;;;;;;;;;;;;;;5054891;28;20103;-82
2023/12/03 01:03:58;;;;;;;;;;;;;;;;;;5053558;28;19925;-83
2023/12/03 01:06:24;;;;;;;;;;;;;;;;;;5054324;28;19931;-82
2023/12/03 01:08:51;;;;;;;;;;;;;;;;;;5054144;28;20012;-82
2023/12/03 01:11:17;;;;;;;;;;;;;;;;;;5054173;28;20011;-81
2023/12/03 01:13:43;;;;;;;;;;;;;;;;;;5053869;28;20371;-83
2023/12/03 01:16:10;;;;;;;;;;;;;;;;;;5054438;28;20027;-84
2023/12/03 01:18:36;;;;;;;;;;;;;;;;;;5054101;28;20016;-82
2023/12/03 01:21:02;;;;;;;;;;;;;;;;;;5053843;28;19925;-82
2023/12/03 01:23:28;;;;;;;;;;;;;;;;;;5053430;28;20373;-83
2023/12/03 01:25:55;;;;;;;;;;;;;;;;;;5054015;28;19925;-85
2023/12/03 01:28:21;;;;;;;;;;;;;;;;;;5053887;28;20294;-82
2023/12/03 01:30:48;;;;;;;;;;;;;;;;;;5054264;28;19925;-82
2023/12/03 01:33:14;;;;;;;;;;;;;;;;;;5052447;28;19987;-82
2023/12/03 01:35:40;;;;;;;;;;;;;;;;;;5054125;28;20027;-82
2023/12/03 01:38:06;;;;;;;;;;;;;;;;;;5053689;28;20007;-84
2023/12/03 01:40:33;;;;;;;;;;;;;;;;;;5053975;28;20012;-83
2023/12/03 01:42:59;;;;;;;;;;;;;;;;;;5053966;28;19931;-82
2023/12/03 01:45:25;;;;;;;;;;;;;;;;;;5053413;28;19932;-84
2023/12/03 01:47:51;;;;;;;;;;;;;;;;;;5054280;28;20023;-82
2023/12/03 01:50:18;;;;;;;;;;;;;;;;;;5053817;28;19925;-82
2023/12/03 01:52:44;;;;;;;;;;;;;;;;;;5053689;28;20019;-84
2023/12/03 01:55:10;;;;;;;;;;;;;;;;;;5053311;28;20446;-82
2023/12/03 01:57:37;;;;;;;;;;;;;;;;;;5053786;28;19928;-82
2023/12/03 02:00:04;;;;;;;;;;;;;;;;;;5052215;28;19925;-82
2023/12/03 02:02:30;;;;;;;;;;;;;;;;;;5055285;28;20015;-84
2023/12/03 02:04:56;;;;;;;;;;;;;;;;;;5056768;28;19929;-82
2023/12/03 02:07:23;;;;;;;;;;;;;;;;;;5056728;28;19932;-83
2023/12/03 02:09:49;;;;;;;;;;;;;;;;;;5057019;28;19924;-83
2023/12/03 02:12:16;;;;;;;;;;;;;;;;;;5057690;28;20027;-83
2023/12/03 02:14:42;;;;;;;;;;;;;;;;;;5056011;28;19931;-83
2023/12/03 02:17:09;;;;;;;;;;;;;;;;;;5056352;28;20298;-84
2023/12/03 02:19:35;;;;;;;;;;;;;;;;;;5057047;28;20019;-84
2023/12/03 02:22:01;;;;;;;;;;;;;;;;;;5056293;28;19932;-83
2023/12/03 02:24:27;;;;;;;;;;;;;;;;;;5057302;28;19931;-82
2023/12/03 02:26:54;;;;;;;;;;;;;;;;;;5057317;28;20374;-83
2023/12/03 02:29:20;;;;;;;;;;;;;;;;;;5056699;28;19971;-83
2023/12/03 02:31:46;;;;;;;;;;;;;;;;;;5056897;28;20410;-84
2023/12/03 02:34:13;;;;;;;;;;;;;;;;;;5056736;28;19924;-84
2023/12/03 02:36:39;;;;;;;;;;;;;;;;;;5057380;28;19931;-84
2023/12/03 02:39:05;;;;;;;;;;;;;;;;;;5055654;28;19925;-84
2023/12/03 02:41:32;;;;;;;;;;;;;;;;;;5055559;28;19991;-84
2023/12/03 02:43:58;;;;;;;;;;;;;;;;;;5056617;28;19925;-84
2023/12/03 02:46:24;;;;;;;;;;;;;;;;;;5055490;28;19925;-84
2023/12/03 02:48:51;;;;;;;;;;;;;;;;;;5056928;28;19931;-84
2023/12/03 02:51:17;;;;;;;;;;;;;;;;;;5055572;28;19929;-84
2023/12/03 02:53:43;;;;;;;;;;;;;;;;;;5056630;28;19947;-84
2023/12/03 02:56:09;;;;;;;;;;;;;;;;;;5056459;28;19924;-84
2023/12/03 02:58:36;;;;;;;;;;;;;;;;;;5056032;28;19925;-84
2023/12/03 03:01:02;;;;;;;;;;;;;;;;;;5056213;28;19931;-84
2023/12/03 03:03:28;;;;;;;;;;;;;;;;;;5056145;28;20015;-84
2023/12/03 03:05:54;;;;;;;;;;;;;;;;;;5056320;28;20020;-84
2023/12/03 03:08:21;;;;;;;;;;;;;;;;;;5055193;28;19925;-84
2023/12/03 03:10:47;;;;;;;;;;;;;;;;;;5056601;28;20023;-84
2023/12/03 03:13:13;;;;;;;;;;;;;;;;;;5054571;28;19931;-84
2023/12/03 03:15:39;;;;;;;;;;;;;;;;;;5056349;28;19925;-83
2023/12/03 03:18:06;;;;;;;;;;;;;;;;;;5056027;28;20015;-85
2023/12/03 03:20:32;;;;;;;;;;;;;;;;;;5055178;28;20409;-83
2023/12/03 03:22:59;;;;;;;;;;;;;;;;;;5055991;28;19975;-83
2023/12/03 03:25:25;;;;;;;;;;;;;;;;;;5055618;28;19925;-84
2023/12/03 03:27:51;;;;;;;;;;;;;;;;;;5055053;28;20298;-83
2023/12/03 03:30:17;;;;;;;;;;;;;;;;;;5055940;28;19929;-83
2023/12/03 03:32:44;;;;;;;;;;;;;;;;;;5056427;28;20015;-83
2023/12/03 03:35:10;;;;;;;;;;;;;;;;;;5055513;28;20012;-83
2023/12/03 03:37:36;;;;;;;;;;;;;;;;;;5055963;28;19929;-84
2023/12/03 03:40:02;;;;;;;;;;;;;;;;;;5054751;28;19934;-83
2023/12/03 03:42:29;;;;;;;;;;;;;;;;;;5055753;28;19987;-84
2023/12/03 03:44:55;;;;;;;;;;;;;;;;;;5054570;28;19925;-84
2023/12/03 03:47:21;;;;;;;;;;;;;;;;;;5056138;28;19924;-84
2023/12/03 03:49:48;;;;;;;;;;;;;;;;;;5055208;28;19935;-84
2023/12/03 03:52:14;;;;;;;;;;;;;;;;;;5054542;28;19925;-84
2023/12/03 03:54:41;;;;;;;;;;;;;;;;;;5055195;28;20294;-84
2023/12/03 03:57:07;;;;;;;;;;;;;;;;;;5055192;28;19925;-84
2023/12/03 03:59:33;;;;;;;;;;;;;;;;;;5054998;28;19924;-83
2023/12/03 04:01:59;;;;;;;;;;;;;;;;;;5055689;28;20051;-84
2023/12/03 04:04:26;;;;;;;;;;;;;;;;;;5054995;28;19925;-84
2023/12/03 04:06:52;;;;;;;;;;;;;;;;;;5054481;28;19932;-84
2023/12/03 04:09:18;;;;;;;;;;;;;;;;;;5055167;28;20294;-84
2023/12/03 04:11:45;;;;;;;;;;;;;;;;;;5055491;28;20019;-83
2023/12/03 04:14:11;;;;;;;;;;;;;;;;;;5054627;28;19925;-84
2023/12/03 04:16:37;;;;;;;;;;;;;;;;;;5054794;28;19928;-84
2023/12/03 04:19:05;;;;;;;;;;;;;;;;;;5054833;28;19931;-84
2023/12/03 04:21:31;;;;;;;;;;;;;;;;;;5054768;28;19924;-84
2023/12/03 04:23:58;;;;;;;;;;;;;;;;;;5054156;28;19952;-84
2023/12/03 04:26:24;;;;;;;;;;;;;;;;;;5055375;28;19925;-84
2023/12/03 04:28:50;;;;;;;;;;;;;;;;;;5053358;28;19931;-84
2023/12/03 04:31:17;;;;;;;;;;;;;;;;;;5055017;28;20354;-84
2023/12/03 04:33:43;;;;;;;;;;;;;;;;;;5053265;28;19925;-84
2023/12/03 04:36:09;;;;;;;;;;;;;;;;;;5054995;28;20011;-84
2023/12/03 04:38:35;;;;;;;;;;;;;;;;;;5054438;28;19924;-84
2023/12/03 04:41:02;;;;;;;;;;;;;;;;;;5054933;28;20306;-84
2023/12/03 04:43:28;;;;;;;;;;;;;;;;;;5054216;28;19925;-84
2023/12/03 04:45:55;;;;;;;;;;;;;;;;;;5054194;28;19925;-84
2023/12/03 04:48:22;;;;;;;;;;;;;;;;;;5054216;28;19931;-84
2023/12/03 04:50:48;;;;;;;;;;;;;;;;;;5054877;28;19932;-84
2023/12/03 04:53:14;;;;;;;;;;;;;;;;;;5053977;28;20395;-84
2023/12/03 04:55:41;;;;;;;;;;;;;;;;;;5054547;28;19997;-84
2023/12/03 04:58:07;;;;;;;;;;;;;;;;;;5052479;28;19924;-83
2023/12/03 05:00:33;;;;;;;;;;;;;;;;;;5053033;28;19924;-83
2023/12/03 05:03:02;;;;;;;;;;;;;;;;;;5052212;28;21307;-84
2023/12/03 05:05:28;;;;;;;;;;;;;;;;;;5053308;28;20287;-83
2023/12/03 05:07:55;;;;;;;;;;;;;;;;;;5053218;28;19967;-83
2023/12/03 05:10:21;;;;;;;;;;;;;;;;;;5054381;28;20011;-83
2023/12/03 05:12:47;;;;;;;;;;;;;;;;;;5054044;28;20416;-83
2023/12/03 05:15:13;;;;;;;;;;;;;;;;;;5052531;28;19925;-83
2023/12/03 05:17:40;;;;;;;;;;;;;;;;;;5053858;28;19925;-83
2023/12/03 05:20:06;;;;;;;;;;;;;;;;;;5054104;28;19931;-83
2023/12/03 05:22:32;;;;;;;;;;;;;;;;;;5053764;28;19925;-83
2023/12/03 05:24:58;;;;;;;;;;;;;;;;;;5053927;28;19928;-83
2023/12/03 05:27:25;;;;;;;;;;;;;;;;;;5053031;28;19932;-83
2023/12/03 05:29:51;;;;;;;;;;;;;;;;;;5053863;28;20371;-83
2023/12/03 05:32:17;;;;;;;;;;;;;;;;;;5053803;28;19931;-83
2023/12/03 05:34:43;;;;;;;;;;;;;;;;;;5053142;28;19959;-83
2023/12/03 05:37:10;;;;;;;;;;;;;;;;;;5053168;28;19925;-83
2023/12/03 05:39:36;;;;;;;;;;;;;;;;;;5053382;28;19925;-83
2023/12/03 05:42:02;;;;;;;;;;;;;;;;;;5053569;28;20433;-83
2023/12/03 05:44:29;;;;;;;;;;;;;;;;;;5053063;28;19928;-83
2023/12/03 05:46:55;;;;;;;;;;;;;;;;;;5054077;28;20353;-83
2023/12/03 05:49:21;;;;;;;;;;;;;;;;;;5053448;28;20012;-83
2023/12/03 05:51:47;;;;;;;;;;;;;;;;;;5054069;28;19925;-84
2023/12/03 05:54:14;;;;;;;;;;;;;;;;;;5053706;28;19931;-84
2023/12/03 05:56:40;;;;;;;;;;;;;;;;;;5053546;28;19931;-83
2023/12/03 05:59:06;;;;;;;;;;;;;;;;;;5053001;28;20276;-83
2023/12/03 06:01:32;;;;;;;;;;;;;;;;;;5054234;28;20035;-84
2023/12/03 06:03:59;;;;;;;;;;;;;;;;;;5051992;28;19925;-83
2023/12/03 06:06:25;;;;;;;;;;;;;;;;;;5053809;28;19931;-83
2023/12/03 06:08:51;;;;;;;;;;;;;;;;;;5053219;28;20275;-83
2023/12/03 06:11:17;;;;;;;;;;;;;;;;;;5053822;28;19925;-83
2023/12/03 06:13:44;;;;;;;;;;;;;;;;;;5053390;28;19931;-83
2023/12/03 06:16:10;;;;;;;;;;;;;;;;;;5053395;28;20276;-83
2023/12/03 06:18:36;;;;;;;;;;;;;;;;;;5053210;28;19988;-83
2023/12/03 06:21:03;;;;;;;;;;;;;;;;;;5052496;28;19932;-83
2023/12/03 06:23:30;;;;;;;;;;;;;;;;;;5052161;28;19929;-83
2023/12/03 06:25:56;;;;;;;;;;;;;;;;;;5053501;28;19931;-83
2023/12/03 06:28:22;;;;;;;;;;;;;;;;;;5052729;28;20015;-83
2023/12/03 06:30:48;;;;;;;;;;;;;;;;;;5053897;28;20011;-83
2023/12/03 06:33:18;;;;;;;;;;;;;;;;;;5052655;28;20448;-83
2023/12/03 06:35:44;;;;;;;;;;;;;;;;;;5052129;28;20019;-83
2023/12/03 06:38:10;;;;;;;;;;;;;;;;;;5053334;28;19929;-82
2023/12/03 06:40:37;;;;;;;;;;;;;;;;;;5053450;28;19931;-83
2023/12/03 06:43:03;;;;;;;;;;;;;;;;;;5053394;28;20458;-84
2023/12/03 06:45:29;;;;;;;;;;;;;;;;;;5052535;28;20012;-85
2023/12/03 06:47:55;;;;;;;;;;;;;;;;;;5055076;28;19932;-83
2023/12/03 06:50:22;;;;;;;;;;;;;;;;;;5057192;28;20023;-82
2023/12/03 06:52:48;;;;;;;;;;;;;;;;;;5058761;28;20019;-82
2023/12/03 06:55:14;;;;;;;;;;;;;;;;;;5058073;28;20417;-83
2023/12/03 06:57:40;;;;;;;;;;;;;;;;;;5058940;28;20019;-83
2023/12/03 07:00:07;;;;;;;;;;;;;;;;;;5057275;28;19938;-82
2023/12/03 07:02:34;;;;;;;;;;;;;;;;;;5059254;28;19932;-82
2023/12/03 07:05:01;;;;;;;;;;;;;;;;;;5058178;28;19924;-82
2023/12/03 07:07:27;;;;;;;;;;;;;;;;;;5057428;28;19925;-82
2023/12/03 07:09:53;;;;;;;;;;;;;;;;;;5053265;28;20283;-83
2023/12/03 07:12:19;;;;;;;;;;;;;;;;;;5058287;28;20027;-82
2023/12/03 07:14:46;;;;;;;;;;;;;;;;;;5057861;28;20028;-82
2023/12/03 07:17:12;;;;;;;;;;;;;;;;;;5058454;28;20362;-82
2023/12/03 07:19:38;;;;;;;;;;;;;;;;;;5057187;28;20011;-82
2023/12/03 07:22:05;;;;;;;;;;;;;;;;;;5058252;28;19924;-83
2023/12/03 07:24:34;;;;;;;;;;;;;;;;;;5058373;28;20008;-82
2023/12/03 07:27:01;;;;;;;;;;;;;;;;;;5058720;28;20465;-83
2023/12/03 07:29:27;;;;;;;;;;;;;;;;;;5057892;28;20020;-83
2023/12/03 07:31:53;;;;;;;;;;;;;;;;;;5057497;28;19932;-83
2023/12/03 07:34:19;;;;;;;;;;;;;;;;;;5058188;28;20301;-82
2023/12/03 07:36:46;;;;;;;;;;;;;;;;;;5058313;28;19925;-82
2023/12/03 07:39:12;;;;;;;;;;;;;;;;;;5058409;28;20106;-82
2023/12/03 07:41:38;;;;;;;;;;;;;;;;;;5057124;28;19939;-83
2023/12/03 07:44:04;;;;;;;;;;;;;;;;;;5057984;28;20331;-82
2023/12/03 07:46:31;;;;;;;;;;;;;;;;;;5057471;28;20011;-82
2023/12/03 07:48:57;;;;;;;;;;;;;;;;;;5057193;28;20289;-82
2023/12/03 07:51:23;;;;;;;;;;;;;;;;;;5057464;28;19931;-83
2023/12/03 07:53:50;;;;;;;;;;;;;;;;;;5057482;28;20035;-82
2023/12/03 07:56:16;;;;;;;;;;;;;;;;;;5057395;28;20007;-83
2023/12/03 07:58:43;;;;;;;;;;;;;;;;;;5057011;28;19924;-82
2023/12/03 08:01:09;;;;;;;;;;;;;;;;;;5055042;28;19934;-82
2023/12/03 08:03:36;;;;;;;;;;;;;;;;;;5057459;28;19924;-82
2023/12/03 08:06:02;;;;;;;;;;;;;;;;;;5057203;28;20008;-83
2023/12/03 08:08:28;;;;;;;;;;;;;;;;;;5057094;28;20279;-82
2023/12/03 08:10:54;;;;;;;;;;;;;;;;;;5056878;28;19999;-82
2023/12/03 08:13:21;;;;;;;;;;;;;;;;;;5056477;28;19931;-83
2023/12/03 08:15:47;;;;;;;;;;;;;;;;;;5056014;28;20375;-82
2023/12/03 08:18:13;;;;;;;;;;;;;;;;;;5055766;28;19931;-82
2023/12/03 08:20:40;;;;;;;;;;;;;;;;;;5056215;28;19928;-82
2023/12/03 08:23:06;;;;;;;;;;;;;;;;;;5057118;28;19931;-82
2023/12/03 08:25:32;;;;;;;;;;;;;;;;;;5056383;28;20015;-83
2023/12/03 08:27:58;;;;;;;;;;;;;;;;;;5055596;28;19925;-83
2023/12/03 08:30:25;;;;;;;;;;;;;;;;;;5055962;28;20011;-82
2023/12/03 08:32:52;;;;;;;;;;;;;;;;;;5056122;28;19924;-83
2023/12/03 08:35:18;;;;;;;;;;;;;;;;;;5055432;28;20008;-83
2023/12/03 08:37:45;;;;;;;;;;;;;;;;;;5056493;28;20358;-81
2023/12/03 08:40:12;;;;;;;;;;;;;;;;;;5056241;28;19964;-81
2023/12/03 08:42:39;;;;;;;;;;;;;;;;;;5056259;28;20024;-82
2023/12/03 08:45:06;;;;;;;;;;;;;;;;;;5055815;28;20461;-83
2023/12/03 08:47:32;;;;;;;;;;;;;;;;;;5056218;28;20011;-82
2023/12/03 08:49:59;;;;;;;;;;;;;;;;;;5055848;28;19960;-82
2023/12/03 08:52:25;;;;;;;;;;;;;;;;;;5054324;28;20409;-82
2023/12/03 08:54:51;;;;;;;;;;;;;;;;;;5054459;28;19924;-82
2023/12/03 08:57:18;;;;;;;;;;;;;;;;;;5054703;28;20389;-82
2023/12/03 08:59:46;;;;;;;;;;;;;;;;;;5054101;28;19925;-83
2023/12/03 09:02:13;;;;;;;;;;;;;;;;;;5054751;28;20425;-83
2023/12/03 09:04:39;;;;;;;;;;;;;;;;;;5054271;28;19931;-82
2023/12/03 09:07:05;;;;;;;;;;;;;;;;;;5054484;28;19968;-83
2023/12/03 09:09:32;;;;;;;;;;;;;;;;;;5054288;28;20011;-82
2023/12/03 09:11:58;;;;;;;;;;;;;;;;;;5054737;28;20019;-82
2023/12/03 09:14:25;;;;;;;;;;;;;;;;;;5053846;28;19925;-82
2023/12/03 09:16:52;;;;;;;;;;;;;;;;;;5054085;28;19931;-82
2023/12/03 09:19:18;;;;;;;;;;;;;;;;;;5052794;28;20012;-83
2023/12/03 09:21:44;;;;;;;;;;;;;;;;;;5054105;28;19931;-82
2023/12/03 09:24:10;;;;;;;;;;;;;;;;;;5054020;28;19929;-82
2023/12/03 09:26:37;;;;;;;;;;;;;;;;;;5053989;28;19925;-82
2023/12/03 09:29:04;;;;;;;;;;;;;;;;;;5054291;28;20016;-82
2023/12/03 09:31:30;;;;;;;;;;;;;;;;;;5053480;28;19929;-82
2023/12/03 09:33:56;;;;;;;;;;;;;;;;;;5054570;28;20019;-82
2023/12/03 09:36:23;;;;;;;;;;;;;;;;;;5054959;28;20016;-82
2023/12/03 09:38:49;;;;;;;;;;;;;;;;;;5054598;28;20012;-82
2023/12/03 09:41:15;;;;;;;;;;;;;;;;;;5054144;28;20015;-82
2023/12/03 09:43:42;;;;;;;;;;;;;;;;;;5054410;28;20107;-83
2023/12/03 09:46:08;;;;;;;;;;;;;;;;;;5053871;28;19924;-83
2023/12/03 09:48:34;;;;;;;;;;;;;;;;;;5056105;28;20375;-82
2023/12/03 09:51:00;;;;;;;;;;;;;;;;;;5054096;28;20016;-82
2023/12/03 09:53:27;;;;;;;;;;;;;;;;;;5054659;28;19946;-82
2023/12/03 09:55:53;;;;;;;;;;;;;;;;;;5053704;28;20015;-82
2023/12/03 09:58:19;;;;;;;;;;;;;;;;;;5053197;28;19982;-82
2023/12/03 10:00:46;;;;;;;;;;;;;;;;;;5053897;28;19929;-82
2023/12/03 10:03:12;;;;;;;;;;;;;;;;;;5054593;28;19971;-82
2023/12/03 10:05:38;;;;;;;;;;;;;;;;;;5053609;28;20012;-83
2023/12/03 10:08:06;;;;;;;;;;;;;;;;;;5054545;28;20011;-83
2023/12/03 10:10:33;;;;;;;;;;;;;;;;;;5053840;28;19924;-83
2023/12/03 10:12:59;;;;;;;;;;;;;;;;;;5054202;28;19925;-83
2023/12/03 10:15:25;;;;;;;;;;;;;;;;;;5053662;28;19925;-82
2023/12/03 10:17:52;;;;;;;;;;;;;;;;;;5052576;28;19970;-82
2023/12/03 10:20:20;;;;;;;;;;;;;;;;;;5054312;28;20330;-83
2023/12/03 10:22:46;;;;;;;;;;;;;;;;;;5055123;28;19925;-81
2023/12/03 10:25:12;;;;;;;;;;;;;;;;;;5056385;28;19931;-81
2023/12/03 10:27:39;;;;;;;;;;;;;;;;;;5058600;28;20359;-81
2023/12/03 10:30:05;;;;;;;;;;;;;;;;;;5057481;28;19925;-81
2023/12/03 10:32:31;;;;;;;;;;;;;;;;;;5057854;28;20012;-81
2023/12/03 10:34:58;;;;;;;;;;;;;;;;;;5057410;28;19925;-81
2023/12/03 10:37:24;;;;;;;;;;;;;;;;;;5057800;28;20457;-83
2023/12/03 10:39:50;;;;;;;;;;;;;;;;;;5057922;28;19928;-82
2023/12/03 10:42:16;;;;;;;;;;;;;;;;;;5057468;28;19932;-81
2023/12/03 10:44:43;;;;;;;;;;;;;;;;;;5057318;28;20027;-81
2023/12/03 10:47:09;;;;;;;;;;;;;;;;;;5057965;28;20035;-81
2023/12/03 10:49:35;;;;;;;;;;;;;;;;;;5057174;28;19924;-81
2023/12/03 10:52:02;;;;;;;;;;;;;;;;;;5056151;28;20418;-81
2023/12/03 10:54:28;;;;;;;;;;;;;;;;;;5057386;28;19928;-81
2023/12/03 10:56:54;;;;;;;;;;;;;;;;;;5057586;28;20349;-83
2023/12/03 10:59:21;;;;;;;;;;;;;;;;;;5055558;28;20008;-83
2023/12/03 11:01:48;;;;;;;;;;;;;;;;;;5057336;28;19979;-81
2023/12/03 11:04:15;;;;;;;;;;;;;;;;;;5056810;28;19924;-81
2023/12/03 11:06:42;;;;;;;;;;;;;;;;;;5061554;28;19931;-81
2023/12/03 11:09:08;;;;;;;;;;;;;;;;;;5055736;28;20383;-82
2023/12/03 11:11:34;;;;;;;;;;;;;;;;;;5057035;28;19928;-81
2023/12/03 11:14:01;;;;;;;;;;;;;;;;;;5056932;28;20028;-81
2023/12/03 11:16:28;;;;;;;;;;;;;;;;;;5056229;28;19932;-81
2023/12/03 11:18:54;;;;;;;;;;;;;;;;;;5056643;28;19925;-82
2023/12/03 11:21:20;;;;;;;;;;;;;;;;;;5057096;28;19937;-81
2023/12/03 11:23:47;;;;;;;;;;;;;;;;;;5056957;28;20020;-83
2023/12/03 11:26:13;;;;;;;;;;;;;;;;;;5056441;28;19924;-84
2023/12/03 11:28:40;;;;;;;;;;;;;;;;;;5056880;28;19925;-81
2023/12/03 11:31:07;;;;;;;;;;;;;;;;;;5056278;28;20454;-80
2023/12/03 11:33:34;;;;;;;;;;;;;;;;;;5055892;28;19924;-83
2023/12/03 11:36:01;;;;;;;;;;;;;;;;;;5054160;28;19940;-83
2023/12/03 11:38:27;;;;;;;;;;;;;;;;;;5055907;28;20390;-83
2023/12/03 11:40:53;;;;;;;;;;;;;;;;;;5055904;28;19931;-83
2023/12/03 11:43:19;;;;;;;;;;;;;;;;;;5056724;28;20355;-82
2023/12/03 11:45:46;;;;;;;;;;;;;;;;;;5055672;28;19925;-83
2023/12/03 11:48:14;;;;;;;;;;;;;;;;;;5055267;28;19925;-83
2023/12/03 11:50:40;;;;;;;;;;;;;;;;;;5056037;28;19932;-81
2023/12/03 11:53:06;;;;;;;;;;;;;;;;;;5055121;28;19932;-81
2023/12/03 11:55:33;;;;;;;;;;;;;;;;;;5054934;28;20007;-83
2023/12/03 11:57:59;;;;;;;;;;;;;;;;;;5056350;28;20012;-81
2023/12/03 12:00:25;;;;;;;;;;;;;;;;;;5055587;28;20003;-81
2023/12/03 12:02:52;;;;;;;;;;;;;;;;;;5056129;28;20489;-81
2023/12/03 12:05:18;;;;;;;;;;;;;;;;;;5055894;28;19932;-82
2023/12/03 12:07:44;;;;;;;;;;;;;;;;;;5056447;28;19988;-83
2023/12/03 12:10:11;;;;;;;;;;;;;;;;;;5054747;28;19925;-83
2023/12/03 12:12:37;;;;;;;;;;;;;;;;;;5055646;28;19925;-83
2023/12/03 12:15:03;;;;;;;;;;;;;;;;;;5055631;28;20003;-81
2023/12/03 12:17:29;;;;;;;;;;;;;;;;;;5056048;28;20351;-82
2023/12/03 12:19:56;;;;;;;;;;;;;;;;;;5054462;28;19925;-81
2023/12/03 12:22:23;;;;;;;;;;;;;;;;;;5056031;28;19924;-84
2023/12/03 12:24:49;;;;;;;;;;;;;;;;;;5054732;28;20008;-81
2023/12/03 12:27:15;;;;;;;;;;;;;;;;;;5055159;28;19925;-83
2023/12/03 12:29:42;;;;;;;;;;;;;;;;;;5053676;28;19928;-84
2023/12/03 12:32:08;;;;;;;;;;;;;;;;;;5055277;28;19931;-83
2023/12/03 12:34:34;;;;;;;;;;;;;;;;;;5055003;28;19924;-83
2023/12/03 12:37:00;;;;;;;;;;;;;;;;;;5055289;28;19975;-81
2023/12/03 12:39:27;;;;;;;;;;;;;;;;;;5056323;28;19924;-84
2023/12/03 12:41:53;;;;;;;;;;;;;;;;;;5058127;28;19931;-83
2023/12/03 12:44:20;;;;;;;;;;;;;;;;;;5054947;28;20007;-82
2023/12/03 12:46:46;;;;;;;;;;;;;;;;;;5054571;28;19932;-82
2023/12/03 12:49:12;;;;;;;;;;;;;;;;;;5054984;28;19963;-82
2023/12/03 12:51:39;;;;;;;;;;;;;;;;;;5055425;28;19924;-82
2023/12/03 12:54:06;;;;;;;;;;;;;;;;;;5054572;28;19932;-82
2023/12/03 12:56:32;;;;;;;;;;;;;;;;;;5055167;28;19929;-82
2023/12/03 12:58:58;;;;;;;;;;;;;;;;;;5054145;28;20466;-84
2023/12/03 13:01:25;;;;;;;;;;;;;;;;;;5054951;28;20111;-83
2023/12/03 13:03:51;;;;;;;;;;;;;;;;;;5054400;28;19929;-84
2023/12/03 13:06:17;;;;;;;;;;;;;;;;;;5053677;28;19931;-83
2023/12/03 13:08:43;;;;;;;;;;;;;;;;;;5054084;28;19925;-82
2023/12/03 13:11:10;;;;;;;;;;;;;;;;;;5052681;28;19931;-82
2023/12/03 13:13:36;;;;;;;;;;;;;;;;;;5054472;28;20035;-84
2023/12/03 13:16:02;;;;;;;;;;;;;;;;;;5053901;28;20020;-84
2023/12/03 13:18:29;;;;;;;;;;;;;;;;;;5052965;28;19925;-84
2023/12/03 13:20:55;;;;;;;;;;;;;;;;;;5053443;28;20298;-83
2023/12/03 13:23:21;;;;;;;;;;;;;;;;;;5054308;28;19931;-83
2023/12/03 13:25:48;;;;;;;;;;;;;;;;;;5052276;28;19991;-83
2023/12/03 13:28:14;;;;;;;;;;;;;;;;;;5053131;28;19925;-83
2023/12/03 13:30:40;;;;;;;;;;;;;;;;;;5053722;28;19925;-83
2023/12/03 13:33:06;;;;;;;;;;;;;;;;;;5054173;28;20020;-83
2023/12/03 13:35:33;;;;;;;;;;;;;;;;;;5053378;28;20019;-84
2023/12/03 13:37:59;;;;;;;;;;;;;;;;;;5054094;28;20007;-84
2023/12/03 13:40:25;;;;;;;;;;;;;;;;;;5053599;28;20000;-83
2023/12/03 13:42:52;;;;;;;;;;;;;;;;;;5053843;28;20457;-84
2023/12/03 13:45:18;;;;;;;;;;;;;;;;;;5053612;28;19932;-84
2023/12/03 13:47:44;;;;;;;;;;;;;;;;;;5055241;28;19924;-83
2023/12/03 13:50:11;;;;;;;;;;;;;;;;;;5053545;28;19947;-82
2023/12/03 13:52:37;;;;;;;;;;;;;;;;;;5054299;28;20016;-82
2023/12/03 13:55:04;;;;;;;;;;;;;;;;;;5053141;28;19947;-82
2023/12/03 13:57:31;;;;;;;;;;;;;;;;;;5054777;28;20302;-82
2023/12/03 13:59:57;;;;;;;;;;;;;;;;;;5057571;28;19924;-82
2023/12/03 14:02:25;;;;;;;;;;;;;;;;;;5059948;28;19952;-83
2023/12/03 14:04:51;;;;;;;;;;;;;;;;;;5060515;28;19925;-84
2023/12/03 14:07:17;;;;;;;;;;;;;;;;;;5057702;28;19925;-83
2023/12/03 14:09:44;;;;;;;;;;;;;;;;;;5057586;28;19949;-83
2023/12/03 14:12:10;;;;;;;;;;;;;;;;;;5057145;28;20405;-83
2023/12/03 14:14:36;;;;;;;;;;;;;;;;;;5057128;28;20007;-83
2023/12/03 14:17:03;;;;;;;;;;;;;;;;;;5056217;28;19986;-84
2023/12/03 14:19:29;;;;;;;;;;;;;;;;;;5055444;28;19925;-83
2023/12/03 14:21:55;;;;;;;;;;;;;;;;;;5056636;28;19932;-83
2023/12/03 14:24:22;;;;;;;;;;;;;;;;;;5057184;28;19931;-84
2023/12/03 14:26:48;;;;;;;;;;;;;;;;;;5057478;28;19931;-84
2023/12/03 14:29:14;;;;;;;;;;;;;;;;;;5056990;28;19931;-84
2023/12/03 14:31:41;;;;;;;;;;;;;;;;;;5057105;28;19925;-83
2023/12/03 14:34:07;;;;;;;;;;;;;;;;;;5056730;28;19931;-83
2023/12/03 14:36:33;;;;;;;;;;;;;;;;;;5055856;28;19929;-83
2023/12/03 14:38:59;;;;;;;;;;;;;;;;;;5056420;28;19974;-84
2023/12/03 14:41:26;;;;;;;;;;;;;;;;;;5056755;28;20387;-84
2023/12/03 14:43:52;;;;;;;;;;;;;;;;;;5057052;28;20019;-83
2023/12/03 14:46:18;;;;;;;;;;;;;;;;;;5056239;28;20019;-82
2023/12/03 14:48:44;;;;;;;;;;;;;;;;;;5056521;28;19925;-83
2023/12/03 14:51:11;;;;;;;;;;;;;;;;;;5056152;28;19925;-84
2023/12/03 14:53:37;;;;;;;;;;;;;;;;;;5057005;28;20020;-84
2023/12/03 14:56:04;;;;;;;;;;;;;;;;;;5056248;28;20387;-83
2023/12/03 14:58:30;;;;;;;;;;;;;;;;;;5056273;28;19932;-83
2023/12/03 15:00:57;;;;;;;;;;;;;;;;;;5054898;28;20395;-83
2023/12/03 15:03:23;;;;;;;;;;;;;;;;;;5056720;28;19935;-83
2023/12/03 15:05:49;;;;;;;;;;;;;;;;;;5055698;28;20383;-83
2023/12/03 15:08:17;;;;;;;;;;;;;;;;;;5055331;28;20413;-83
2023/12/03 15:10:43;;;;;;;;;;;;;;;;;;5056635;28;19991;-84
2023/12/03 15:13:09;;;;;;;;;;;;;;;;;;5056632;28;19925;-83
2023/12/03 15:15:35;;;;;;;;;;;;;;;;;;5055541;28;20016;-83
2023/12/03 15:18:02;;;;;;;;;;;;;;;;;;5055070;28;19925;-84
2023/12/03 15:20:28;;;;;;;;;;;;;;;;;;5055832;28;19988;-82
2023/12/03 15:22:55;;;;;;;;;;;;;;;;;;5056489;28;20023;-82
2023/12/03 15:25:21;;;;;;;;;;;;;;;;;;5056024;28;19932;-82
2023/12/03 15:27:49;;;;;;;;;;;;;;;;;;5059511;28;19924;-84
2023/12/03 15:30:20;;;;;;;;;;;;;;;;;;5060318;28;19975;-85
2023/12/03 15:32:46;;;;;;;;;;;;;;;;;;5058067;28;20429;-84
2023/12/03 15:35:12;;;;;;;;;;;;;;;;;;5056205;28;20016;-84
2023/12/03 15:37:38;;;;;;;;;;;;;;;;;;5056816;28;19925;-84
2023/12/03 15:40:05;;;;;;;;;;;;;;;;;;5056197;28;20031;-84
2023/12/03 15:42:31;;;;;;;;;;;;;;;;;;5056294;28;19931;-84
2023/12/03 15:44:57;;;;;;;;;;;;;;;;;;5056024;28;20313;-84
2023/12/03 15:47:24;;;;;;;;;;;;;;;;;;5056150;28;19929;-83
2023/12/03 15:49:50;;;;;;;;;;;;;;;;;;5055227;28;20456;-83
2023/12/03 15:52:17;;;;;;;;;;;;;;;;;;5055632;28;19925;-82
2023/12/03 15:54:46;;;;;;;;;;;;;;;;;;5055610;28;19954;-85
2023/12/03 15:57:12;;;;;;;;;;;;;;;;;;5055330;28;20028;-84
2023/12/03 15:59:39;;;;;;;;;;;;;;;;;;5054505;28;19929;-84
2023/12/03 16:02:05;;;;;;;;;;;;;;;;;;5054650;28;19932;-84
2023/12/03 16:04:32;;;;;;;;;;;;;;;;;;5055530;28;20335;-84
2023/12/03 16:06:58;;;;;;;;;;;;;;;;;;5054520;28;19972;-84
2023/12/03 16:09:24;;;;;;;;;;;;;;;;;;5055298;28;19994;-84
2023/12/03 16:11:52;;;;;;;;;;;;;;;;;;5055822;28;20015;-84
2023/12/03 16:14:19;;;;;;;;;;;;;;;;;;5055402;28;19979;-84
2023/12/03 16:16:45;;;;;;;;;;;;;;;;;;5055265;28;19925;-84
2023/12/03 16:19:12;;;;;;;;;;;;;;;;;;5054535;28;19975;-84
2023/12/03 16:21:39;;;;;;;;;;;;;;;;;;5057068;28;19924;-87
2023/12/03 16:24:05;;;;;;;;;;;;;;;;;;5058475;28;19931;-87
2023/12/03 16:26:31;;;;;;;;;;;;;;;;;;5058519;28;20394;-86
2023/12/03 16:28:57;;;;;;;;;;;;;;;;;;5057563;28;19932;-86
2023/12/03 16:31:24;;;;;;;;;;;;;;;;;;5058566;28;20007;-85
2023/12/03 16:33:50;;;;;;;;;;;;;;;;;;5058862;28;19925;-85
2023/12/03 16:36:16;;;;;;;;;;;;;;;;;;5057386;28;19931;-85
2023/12/03 16:38:43;;;;;;;;;;;;;;;;;;5058303;28;20023;-86